Time;durP1;ratioP1;P1;durP2;ratioP2;P2;SDS_P1;SDS_P2;PMS_P1;PMS_P2;Temp;Humidity;BMP_temperature;BMP_pressure;BME280_temperature;BME280_humidity;BME280_pressure;Samples;Min_cycle;Max_cycle;Signal;HPM_P1;HPM_P2
2022/07/15 00:00:22;;;;;;;0.70;0.10;;;21.30;99.90;;;;;;4935903;29;20491;-75
2022/07/15 00:02:50;;;;;;;0.70;0.10;;;21.30;99.90;;;;;;4936111;29;20547;-74
2022/07/15 00:05:18;;;;;;;0.70;0.10;;;21.30;99.90;;;;;;4938061;28;20475;-73
2022/07/15 00:07:46;;;;;;;0.70;0.10;;;21.20;99.90;;;;;;4974363;28;20457;-72
2022/07/15 00:10:18;;;;;;;0.70;0.10;;;21.20;99.90;;;;;;4971882;28;20456;-74
2022/07/15 00:12:49;;;;;;;0.70;0.20;;;21.20;99.90;;;;;;4975089;28;20541;-73
2022/07/15 00:15:20;;;;;;;0.70;0.20;;;21.20;99.90;;;;;;4974843;28;20496;-75
2022/07/15 00:17:48;;;;;;;0.70;0.13;;;21.20;99.90;;;;;;4973367;28;20647;-71
2022/07/15 00:20:17;;;;;;;0.70;0.20;;;21.20;99.90;;;;;;4965099;28;20483;-75
2022/07/15 00:22:46;;;;;;;0.70;0.10;;;21.20;99.90;;;;;;4954436;29;20861;-75
2022/07/15 00:25:15;;;;;;;0.70;0.10;;;21.30;99.90;;;;;;4955355;28;20478;-73
2022/07/15 00:27:54;;;;;;;0.70;0.10;;;21.30;99.90;;;;;;4964663;28;20834;-74
2022/07/15 00:30:24;;;;;;;0.70;0.20;;;21.40;99.90;;;;;;4953906;29;20455;-74
2022/07/15 00:32:52;;;;;;;0.70;0.10;;;21.40;99.90;;;;;;4953764;28;20446;-74
2022/07/15 00:35:20;;;;;;;0.70;0.10;;;20.60;99.90;;;;;;4953849;29;20903;-74
2022/07/15 00:37:49;;;;;;;0.70;0.10;;;;;;;;;;4968975;28;20461;-74
2022/07/15 00:40:17;;;;;;;0.70;0.10;;;21.40;99.90;;;;;;4973038;28;20992;-73
2022/07/15 00:42:45;;;;;;;0.70;0.20;;;21.40;99.90;;;;;;4973341;28;20450;-74
2022/07/15 00:45:14;;;;;;;0.70;0.20;;;21.20;99.90;;;;;;4973440;28;20470;-73
2022/07/15 00:47:45;;;;;;;0.70;0.10;;;21.10;99.90;;;;;;4972917;28;20450;-73
2022/07/15 00:50:14;;;;;;;0.70;0.20;;;21.10;99.90;;;;;;4954194;28;20447;-73
2022/07/15 00:52:44;;;;;;;0.70;0.10;;;21.00;99.90;;;;;;4953780;29;20458;-74
2022/07/15 00:55:13;;;;;;;0.70;0.13;;;20.90;99.90;;;;;;4953349;29;20470;-74
2022/07/15 00:57:44;;;;;;;0.70;0.10;;;20.90;99.90;;;;;;4953255;29;20454;-74
2022/07/15 01:00:13;;;;;;;0.70;0.10;;;20.80;99.90;;;;;;4953702;29;20522;-74
2022/07/15 01:02:49;;;;;;;0.70;0.17;;;20.70;99.90;;;;;;4957968;28;20805;-73
2022/07/15 01:05:19;;;;;;;0.70;0.13;;;20.50;99.90;;;;;;4972665;28;20470;-74
2022/07/15 01:07:49;;;;;;;0.70;0.10;;;20.50;99.90;;;;;;4970902;28;20456;-73
2022/07/15 01:10:17;;;;;;;0.70;0.10;;;20.50;99.90;;;;;;4972678;28;20541;-73
2022/07/15 01:12:47;;;;;;;0.70;0.10;;;20.50;99.90;;;;;;4972976;28;21136;-74
2022/07/15 01:15:16;;;;;;;0.70;0.10;;;20.60;99.90;;;;;;4972781;28;20481;-74
2022/07/15 01:17:46;;;;;;;0.70;0.10;;;20.60;99.90;;;;;;4972351;28;20472;-73
2022/07/15 01:20:16;;;;;;;0.70;0.10;;;20.60;99.90;;;;;;4971366;28;20489;-74
2022/07/15 01:22:45;;;;;;;0.70;0.20;;;20.50;99.90;;;;;;4973208;28;20452;-73
2022/07/15 01:25:14;;;;;;;0.70;0.20;;;20.50;99.90;;;;;;4939471;28;20478;-74
2022/07/15 01:27:42;;;;;;;0.70;0.20;;;20.50;99.90;;;;;;4935011;29;20949;-74
2022/07/15 01:30:11;;;;;;;0.70;0.10;;;20.50;99.90;;;;;;4953738;29;20443;-75
2022/07/15 01:32:39;;;;;;;0.70;0.10;;;20.40;99.90;;;;;;4952066;29;20459;-73
2022/07/15 01:35:08;;;;;;;0.70;0.10;;;20.30;99.90;;;;;;4950254;29;20481;-73
2022/07/15 01:37:36;;;;;;;0.70;0.10;;;20.30;99.90;;;;;;4955042;28;20451;-72
2022/07/15 01:40:07;;;;;;;0.70;0.10;;;20.20;99.90;;;;;;4951347;29;21096;-74
2022/07/15 01:42:35;;;;;;;0.70;0.10;;;20.20;99.90;;;;;;4952321;29;20825;-74
2022/07/15 01:45:03;;;;;;;0.70;0.10;;;20.10;99.90;;;;;;4954897;28;20846;-73
2022/07/15 01:47:32;;;;;;;0.70;0.10;;;20.10;99.90;;;;;;4957602;29;20455;-74
2022/07/15 01:49:59;;;;;;;0.70;0.20;;;20.10;99.90;;;;;;4958858;29;20450;-74
2022/07/15 01:52:27;;;;;;;0.70;0.20;;;20.20;99.90;;;;;;4958714;28;20450;-74
2022/07/15 01:54:55;;;;;;;0.70;0.10;;;20.10;99.90;;;;;;4957059;29;20471;-74
2022/07/15 01:57:24;;;;;;;0.70;0.10;;;20.00;99.90;;;;;;4956759;29;20446;-73
2022/07/15 01:59:52;;;;;;;0.63;0.13;;;19.90;99.90;;;;;;4959001;29;20555;-74
2022/07/15 02:02:19;;;;;;;0.70;0.20;;;19.80;99.90;;;;;;4960327;29;20447;-74
2022/07/15 02:04:48;;;;;;;0.70;0.10;;;19.80;99.90;;;;;;4957258;29;20474;-74
2022/07/15 02:07:16;;;;;;;0.70;0.10;;;19.80;99.90;;;;;;4956855;29;20463;-73
2022/07/15 02:09:44;;;;;;;0.70;0.10;;;19.90;99.90;;;;;;4958131;28;20453;-74
2022/07/15 02:12:12;;;;;;;0.70;0.10;;;19.90;99.90;;;;;;4956968;29;20562;-73
2022/07/15 02:14:41;;;;;;;0.70;0.10;;;19.90;99.90;;;;;;4956532;29;20487;-73
2022/07/15 02:17:09;;;;;;;0.70;0.20;;;19.90;99.90;;;;;;4956750;29;20543;-73
2022/07/15 02:19:37;;;;;;;2.30;2.00;;;19.90;99.90;;;;;;4956504;29;20447;-73
2022/07/15 02:22:05;;;;;;;0.70;0.10;;;19.90;99.90;;;;;;4957342;29;20472;-73
2022/07/15 02:24:33;;;;;;;0.70;0.10;;;;;;;;;;4956076;29;20482;-74
2022/07/15 02:27:02;;;;;;;0.70;0.17;;;19.90;99.90;;;;;;4959304;28;20447;-73
2022/07/15 02:29:29;;;;;;;0.70;0.10;;;19.90;99.90;;;;;;4957605;28;20443;-75
2022/07/15 02:31:59;;;;;;;0.60;0.20;;;20.00;99.90;;;;;;4957581;29;20447;-73
2022/07/15 02:34:27;;;;;;;0.63;0.20;;;20.00;99.90;;;;;;4955917;29;20467;-73
2022/07/15 02:36:54;;;;;;;0.70;0.20;;;20.10;99.90;;;;;;4956929;28;20950;-74
2022/07/15 02:39:22;;;;;;;0.70;0.10;;;20.10;99.90;;;;;;4965458;28;20451;-74
2022/07/15 02:41:50;;;;;;;0.70;0.10;;;20.10;99.90;;;;;;4956646;29;20484;-75
2022/07/15 02:44:18;;;;;;;0.60;0.10;;;20.10;99.90;;;;;;4955885;29;20486;-72
2022/07/15 02:46:46;;;;;;;0.60;0.10;;;20.20;99.90;;;;;;4955722;29;20454;-73
2022/07/15 02:49:15;;;;;;;0.70;0.20;;;20.20;99.90;;;;;;4956681;29;20447;-73
2022/07/15 02:51:43;;;;;;;0.70;0.10;;;20.10;99.90;;;;;;4956777;28;20447;-75
2022/07/15 02:54:11;;;;;;;0.70;0.10;;;20.10;99.90;;;;;;4974578;28;20462;-74
2022/07/15 02:56:39;;;;;;;0.70;0.20;;;20.10;99.90;;;;;;4974503;28;20976;-74
2022/07/15 02:59:07;;;;;;;0.70;0.10;;;20.10;99.90;;;;;;4975201;28;20486;-73
2022/07/15 03:01:34;;;;;;;0.70;0.10;;;20.10;99.90;;;;;;4974967;28;20481;-73
2022/07/15 03:04:04;;;;;;;0.67;0.13;;;20.10;99.90;;;;;;4974832;28;20461;-74
2022/07/15 03:06:33;;;;;;;0.60;0.10;;;20.10;99.90;;;;;;4974488;28;20449;-74
2022/07/15 03:09:01;;;;;;;0.70;0.20;;;20.10;99.90;;;;;;4966405;28;20482;-74
2022/07/15 03:11:29;;;;;;;0.63;0.10;;;19.80;99.90;;;;;;4955799;29;20465;-73
2022/07/15 03:13:57;;;;;;;0.70;0.20;;;19.70;99.90;;;;;;4955564;29;20458;-73
2022/07/15 03:16:25;;;;;;;0.60;0.20;;;19.60;99.90;;;;;;4955282;29;20928;-73
2022/07/15 03:18:53;;;;;;;0.70;0.10;;;19.40;99.90;;;;;;4954916;29;20451;-72
2022/07/15 03:21:21;;;;;;;0.70;0.20;;;19.30;99.90;;;;;;4955436;29;20487;-72
2022/07/15 03:23:51;;;;;;;0.70;0.20;;;19.20;99.90;;;;;;4955636;29;20447;-74
2022/07/15 03:26:19;;;;;;;0.60;0.10;;;19.30;99.90;;;;;;4970061;28;20483;-74
2022/07/15 03:28:47;;;;;;;0.60;0.10;;;19.30;99.90;;;;;;4961790;28;20450;-74
2022/07/15 03:31:15;;;;;;;0.60;0.20;;;19.40;99.90;;;;;;4955532;29;20439;-74
2022/07/15 03:33:44;;;;;;;0.70;0.10;;;;;;;;;;4955136;29;20454;-73
2022/07/15 03:36:20;;;;;;;0.60;0.10;;;19.50;99.90;;;;;;4954578;29;20443;-73
2022/07/15 03:38:49;;;;;;;0.60;0.10;;;19.60;99.90;;;;;;4954848;29;20447;-73
2022/07/15 03:41:18;;;;;;;0.70;0.20;;;19.70;99.90;;;;;;4958489;28;20478;-74
2022/07/15 03:43:46;;;;;;;0.60;0.20;;;19.70;99.90;;;;;;4973926;28;20477;-72
2022/07/15 03:46:15;;;;;;;0.60;0.20;;;19.70;99.90;;;;;;4974645;28;20450;-74
2022/07/15 03:48:43;;;;;;;0.60;0.20;;;19.80;99.90;;;;;;4975729;28;20473;-74
2022/07/15 03:51:11;;;;;;;0.60;0.20;;;19.70;99.90;;;;;;4975766;28;20446;-74
2022/07/15 03:53:39;;;;;;;0.70;0.20;;;19.70;99.90;;;;;;4974791;28;20450;-74
2022/07/15 03:56:07;;;;;;;0.60;0.10;;;19.70;99.90;;;;;;4973934;28;20529;-74
2022/07/15 03:58:36;;;;;;;0.60;0.10;;;19.60;99.90;;;;;;4964909;28;20466;-73
2022/07/15 04:01:04;;;;;;;0.70;0.20;;;19.60;99.90;;;;;;4955088;29;20489;-72
2022/07/15 04:03:33;;;;;;;0.60;0.10;;;19.60;99.90;;;;;;4955317;29;20458;-73
2022/07/15 04:06:01;;;;;;;0.60;0.20;;;19.60;99.90;;;;;;4955390;28;20473;-73
2022/07/15 04:08:29;;;;;;;0.60;0.10;;;19.50;99.90;;;;;;4972394;28;20454;-73
2022/07/15 04:10:57;;;;;;;0.70;0.20;;;19.50;99.90;;;;;;4974146;28;20457;-73
2022/07/15 04:13:25;;;;;;;0.60;0.20;;;19.50;99.90;;;;;;4973673;28;20442;-73
2022/07/15 04:15:54;;;;;;;0.60;0.10;;;19.40;99.90;;;;;;4972273;28;20569;-74
2022/07/15 04:18:22;;;;;;;0.70;0.10;;;19.40;99.90;;;;;;4974328;28;20459;-75
2022/07/15 04:20:50;;;;;;;0.60;0.10;;;19.40;99.90;;;;;;4975473;28;20450;-74
2022/07/15 04:23:18;;;;;;;0.70;0.20;;;19.40;99.90;;;;;;4977297;28;20484;-74
2022/07/15 04:25:46;;;;;;;0.60;0.10;;;19.40;99.90;;;;;;4978881;28;20985;-74
2022/07/15 04:28:14;;;;;;;0.60;0.10;;;19.40;99.90;;;;;;4970451;28;20450;-74
2022/07/15 04:30:42;;;;;;;0.60;0.10;;;19.40;99.90;;;;;;4956146;29;20868;-74
2022/07/15 04:33:11;;;;;;;1.47;1.37;;;19.40;99.90;;;;;;4961861;28;20461;-73
2022/07/15 04:35:39;;;;;;;0.60;0.10;;;19.40;99.90;;;;;;4954596;29;20466;-73
2022/07/15 04:38:07;;;;;;;0.60;0.10;;;19.40;99.90;;;;;;4953797;29;20542;-73
2022/07/15 04:40:35;;;;;;;0.60;0.10;;;19.30;99.90;;;;;;4954486;29;20455;-73
2022/07/15 04:43:09;;;;;;;0.63;0.10;;;19.30;99.90;;;;;;4955338;29;20430;-73
2022/07/15 04:45:37;;;;;;;0.60;0.10;;;19.30;99.90;;;;;;4953453;29;20540;-73
2022/07/15 04:50:45;;;;;;;0.60;0.10;;;19.20;99.90;;;;;;4966001;28;20771;-73
2022/07/15 04:50:56;;;;;;;0.70;0.20;;;19.10;99.90;;;;;;4972841;28;20442;-73
2022/07/15 04:53:24;;;;;;;0.60;0.10;;;19.10;99.90;;;;;;4972804;28;20445;-72
2022/07/15 04:55:52;;;;;;;0.60;0.10;;;19.20;99.90;;;;;;4972748;28;20462;-73
2022/07/15 04:58:20;;;;;;;0.60;0.10;;;19.10;99.90;;;;;;4972791;28;20465;-73
2022/07/15 05:00:48;;;;;;;0.60;0.10;;;19.10;99.90;;;;;;4971767;28;20790;-72
2022/07/15 05:03:16;;;;;;;0.60;0.10;;;19.00;99.90;;;;;;4953310;29;20514;-72
2022/07/15 05:05:44;;;;;;;0.60;0.10;;;19.00;99.90;;;;;;4948519;28;20518;-73
2022/07/15 05:08:14;;;;;;;0.60;0.10;;;19.00;99.90;;;;;;4952543;29;20447;-73
2022/07/15 05:10:42;;;;;;;0.60;0.10;;;19.00;99.90;;;;;;4949082;28;20443;-71
2022/07/15 05:13:10;;;;;;;0.60;0.10;;;;;;;;;;4951254;28;20470;-74
2022/07/15 05:15:38;;;;;;;0.60;0.10;;;19.00;99.90;;;;;;4966999;23;21001;-72
2022/07/15 05:18:06;;;;;;;0.60;0.20;;;19.00;99.90;;;;;;4931649;29;20455;-73
2022/07/15 05:20:34;;;;;;;0.60;0.10;;;19.00;99.90;;;;;;4933726;29;20460;-72
2022/07/15 05:23:02;;;;;;;0.60;0.17;;;19.00;99.90;;;;;;4922569;29;20544;-70
2022/07/15 05:25:31;;;;;;;0.60;0.20;;;19.00;99.90;;;;;;4938079;29;20574;-70
2022/07/15 05:27:59;;;;;;;0.60;0.10;;;19.00;99.90;;;;;;4936824;29;20870;-71
2022/07/15 05:30:27;;;;;;;0.60;0.20;;;19.00;99.90;;;;;;4928792;29;20554;-71
2022/07/15 05:32:55;;;;;;;0.60;0.30;;;19.10;99.90;;;;;;4928790;29;20468;-73
2022/07/15 05:35:23;;;;;;;0.60;0.10;;;19.10;99.90;;;;;;4931667;29;20858;-71
2022/07/15 05:37:50;;;;;;;0.60;0.20;;;19.10;99.90;;;;;;4937067;29;20837;-74
2022/07/15 05:40:18;;;;;;;0.60;0.10;;;19.10;99.90;;;;;;4936434;29;20448;-72
2022/07/15 05:42:48;;;;;;;0.60;0.20;;;19.10;99.90;;;;;;4936685;29;20594;-73
2022/07/15 05:45:16;;;;;;;0.70;0.30;;;19.20;99.90;;;;;;4930521;29;20496;-73
2022/07/15 05:47:49;;;;;;;0.60;0.10;;;19.20;99.90;;;;;;4918301;29;20535;-72
2022/07/15 05:50:17;;;;;;;0.60;0.20;;;19.30;99.90;;;;;;4918186;29;20523;-72
2022/07/15 05:52:44;;;;;;;0.70;0.40;;;19.30;99.90;;;;;;4918187;29;20449;-72
2022/07/15 05:55:13;;;;;;;0.60;0.20;;;19.40;99.90;;;;;;4930022;29;20487;-70
2022/07/15 05:57:41;;;;;;;0.60;0.10;;;19.40;99.90;;;;;;4936539;29;20462;-72
2022/07/15 06:00:15;;;;;;;0.60;0.10;;;19.40;99.90;;;;;;4937760;29;20451;-72
2022/07/15 06:02:43;;;;;;;0.60;0.10;;;19.40;99.90;;;;;;4930223;29;20577;-69
2022/07/15 06:05:12;;;;;;;0.60;0.10;;;19.40;99.90;;;;;;4936230;29;20502;-69
2022/07/15 06:07:39;;;;;;;0.60;0.10;;;19.30;99.90;;;;;;4935369;29;20444;-69
2022/07/15 06:10:08;;;;;;;0.60;0.20;;;19.30;99.90;;;;;;4933475;29;20517;-70
2022/07/15 06:12:37;;;;;;;0.60;0.20;;;19.30;99.90;;;;;;4938471;29;20452;-73
2022/07/15 06:15:06;;;;;;;0.60;0.10;;;19.40;99.90;;;;;;4935597;29;20849;-72
2022/07/15 06:17:35;;;;;;;0.60;0.20;;;19.40;99.90;;;;;;4930859;29;20543;-71
2022/07/15 06:20:05;;;;;;;0.60;0.10;;;19.40;99.90;;;;;;4934096;29;20954;-70
2022/07/15 06:22:39;;;;;;;0.60;0.10;;;19.40;99.90;;;;;;4932593;29;21019;-70
2022/07/15 06:25:08;;;;;;;0.60;0.10;;;19.40;99.90;;;;;;4935454;29;20479;-68
2022/07/15 06:27:36;;;;;;;0.70;0.20;;;19.50;99.90;;;;;;4934209;29;20468;-72
2022/07/15 06:30:06;;;;;;;0.60;0.10;;;19.50;99.90;;;;;;4938387;29;20454;-70
2022/07/15 06:32:35;;;;;;;0.60;0.10;;;19.40;99.90;;;;;;4936887;29;20872;-69
2022/07/15 06:35:04;;;;;;;0.60;0.10;;;19.40;99.90;;;;;;4932186;29;20488;-69
2022/07/15 06:37:32;;;;;;;0.60;0.10;;;19.40;99.90;;;;;;4917386;29;20449;-69
2022/07/15 06:40:00;;;;;;;0.60;0.10;;;19.30;99.90;;;;;;4943088;29;20448;-70
2022/07/15 06:42:28;;;;;;;0.60;0.10;;;19.40;99.90;;;;;;4955397;29;20573;-68
2022/07/15 06:44:56;;;;;;;0.60;0.10;;;19.40;99.90;;;;;;4931034;29;20468;-71
2022/07/15 06:47:24;;;;;;;0.60;0.10;;;19.40;99.90;;;;;;4917345;29;20540;-69
2022/07/15 06:49:54;;;;;;;0.60;0.10;;;19.40;99.90;;;;;;4918911;29;20453;-69
2022/07/15 06:52:22;;;;;;;0.60;0.20;;;19.50;99.90;;;;;;4935883;29;20456;-69
2022/07/15 06:54:49;;;;;;;0.60;0.10;;;19.50;99.90;;;;;;4949878;29;20542;-71
2022/07/15 06:57:18;;;;;;;0.60;0.10;;;;;;;;;;4955744;29;20881;-73
2022/07/15 06:59:47;;;;;;;0.60;0.10;;;19.60;99.90;;;;;;4955147;29;20558;-70
2022/07/15 07:02:15;;;;;;;0.60;0.20;;;19.70;99.90;;;;;;4952222;29;20514;-70
2022/07/15 07:04:44;;;;;;;0.60;0.10;;;19.60;99.90;;;;;;4953169;29;20442;-70
2022/07/15 07:07:14;;;;;;;0.60;0.20;;;19.60;99.90;;;;;;4940105;29;20456;-69
2022/07/15 07:09:42;;;;;;;0.60;0.10;;;19.60;99.90;;;;;;4936590;29;20464;-69
2022/07/15 07:12:10;;;;;;;0.60;0.10;;;19.60;99.90;;;;;;4955961;29;20451;-69
2022/07/15 07:14:38;;;;;;;0.70;0.20;;;19.60;99.90;;;;;;4954654;29;20579;-71
2022/07/15 07:17:06;;;;;;;0.60;0.10;;;19.60;99.90;;;;;;4954689;29;20443;-70
2022/07/15 07:19:34;;;;;;;0.70;0.20;;;19.60;99.90;;;;;;4954512;29;20481;-70
2022/07/15 07:22:02;;;;;;;0.60;0.20;;;19.60;99.90;;;;;;4955187;29;20443;-68
2022/07/15 07:24:31;;;;;;;0.60;0.10;;;19.60;99.90;;;;;;4953093;29;20510;-70
2022/07/15 07:26:59;;;;;;;0.60;0.10;;;19.50;99.90;;;;;;4916124;29;20567;-68
2022/07/15 07:29:33;;;;;;;0.60;0.10;;;19.50;99.90;;;;;;4934666;29;20941;-70
2022/07/15 07:32:02;;;;;;;0.60;0.10;;;19.60;99.90;;;;;;4934922;29;20683;-70
2022/07/15 07:34:30;;;;;;;0.70;0.27;;;19.80;99.90;;;;;;4934015;29;20448;-69
2022/07/15 07:36:58;;;;;;;0.60;0.10;;;19.80;99.90;;;;;;4934137;29;20913;-68
2022/07/15 07:39:26;;;;;;;0.70;0.10;;;19.70;99.90;;;;;;4935583;29;20452;-71
2022/07/15 07:41:55;;;;;;;0.60;0.10;;;19.70;99.90;;;;;;4935924;29;20447;-69
2022/07/15 07:44:23;;;;;;;0.60;0.10;;;19.90;99.90;;;;;;4935424;29;20490;-71
2022/07/15 07:46:51;;;;;;;0.70;0.20;;;20.00;99.90;;;;;;4935036;29;20851;-73
2022/07/15 07:49:19;;;;;;;0.60;0.10;;;20.00;99.90;;;;;;4933501;29;20447;-73
2022/07/15 07:52:01;;;;;;;0.60;0.10;;;19.90;99.90;;;;;;4916453;29;20445;-68
2022/07/15 07:54:30;;;;;;;0.60;0.10;;;19.90;99.90;;;;;;4916180;29;20477;-68
2022/07/15 07:56:59;;;;;;;0.63;0.20;;;19.90;99.90;;;;;;4915934;29;20472;-69
2022/07/15 07:59:27;;;;;;;0.60;0.10;;;19.90;99.90;;;;;;4916209;29;20453;-71
2022/07/15 08:01:55;;;;;;;0.60;0.10;;;19.90;99.90;;;;;;4916786;29;20445;-70
2022/07/15 08:04:24;;;;;;;0.70;0.20;;;;;;;;;;4915985;29;20483;-68
2022/07/15 08:06:52;;;;;;;0.60;0.10;;;19.90;99.90;;;;;;4923495;29;20475;-69
2022/07/15 08:09:20;;;;;;;1.27;0.50;;;19.90;99.90;;;;;;4934851;29;20872;-68
2022/07/15 08:11:47;;;;;;;0.70;0.20;;;19.90;99.90;;;;;;4934947;29;20460;-69
2022/07/15 08:14:18;;;;;;;0.70;0.20;;;20.00;99.90;;;;;;4923942;29;20555;-71
2022/07/15 08:16:46;;;;;;;0.70;0.10;;;20.10;99.90;;;;;;4934469;29;20480;-71
2022/07/15 08:19:16;;;;;;;0.70;0.10;;;20.10;99.90;;;;;;4935218;29;20869;-70
2022/07/15 08:21:44;;;;;;;0.70;0.20;;;20.30;99.90;;;;;;4935186;29;21026;-69
2022/07/15 08:24:13;;;;;;;0.70;0.20;;;;;;;;;;4934040;29;20831;-70
2022/07/15 08:26:41;;;;;;;0.70;0.10;;;20.50;99.90;;;;;;4933961;29;20476;-70
2022/07/15 08:29:09;;;;;;;0.70;0.20;;;20.50;99.90;;;;;;4923913;29;20467;-71
2022/07/15 08:31:38;;;;;;;0.70;0.20;;;20.70;99.90;;;;;;4918127;29;20474;-70
2022/07/15 08:34:07;;;;;;;0.70;0.17;;;20.70;99.90;;;;;;4934659;29;20500;-71
2022/07/15 08:36:35;;;;;;;0.70;0.10;;;20.70;99.90;;;;;;4934678;29;20472;-70
2022/07/15 08:39:03;;;;;;;0.70;0.10;;;20.70;99.90;;;;;;4935472;29;20447;-70
2022/07/15 08:41:36;;;;;;;0.70;0.20;;;20.90;99.90;;;;;;4934157;29;20456;-70
2022/07/15 08:44:06;;;;;;;0.70;0.10;;;20.90;99.90;;;;;;4935344;29;20548;-72
2022/07/15 08:46:35;;;;;;;0.70;0.10;;;21.20;99.90;;;;;;4935544;29;20471;-69
2022/07/15 08:49:07;;;;;;;0.70;0.10;;;21.10;99.90;;;;;;4936154;29;20456;-69
2022/07/15 08:51:38;;;;;;;0.70;0.10;;;21.40;99.90;;;;;;4935919;29;20539;-71
2022/07/15 08:54:06;;;;;;;0.70;0.17;;;21.40;99.90;;;;;;4938496;29;20447;-70
2022/07/15 08:56:35;;;;;;;0.70;0.30;;;21.60;99.90;;;;;;4937549;29;20481;-69
2022/07/15 08:59:05;;;;;;;0.70;0.10;;;21.60;99.90;;;;;;4946031;29;20470;-69
2022/07/15 09:01:35;;;;;;;0.70;0.10;;;21.80;99.90;;;;;;4940668;29;20475;-71
2022/07/15 09:04:04;;;;;;;0.70;0.20;;;21.80;99.90;;;;;;4940854;29;20483;-72
2022/07/15 09:06:34;;;;;;;1.40;1.17;;;21.80;99.90;;;;;;4940035;29;21069;-71
2022/07/15 09:09:29;;;;;;;0.70;0.20;;;21.60;99.90;;;;;;4939560;29;20455;-70
2022/07/15 09:12:00;;;;;;;0.70;0.20;;;21.60;99.90;;;;;;4937407;29;20842;-71
2022/07/15 09:14:42;;;;;;;0.70;0.10;;;;;;;;;;4938646;29;20452;-70
2022/07/15 09:17:23;;;;;;;0.70;0.10;;;21.50;99.90;;;;;;4938679;29;21119;-70
2022/07/15 09:20:08;;;;;;;0.70;0.20;;;21.50;99.90;;;;;;4939158;29;20508;-72
2022/07/15 09:22:50;;;;;;;0.70;0.10;;;21.40;99.90;;;;;;4939603;29;20820;-70
2022/07/15 09:25:19;;;;;;;0.70;0.10;;;21.30;99.90;;;;;;4939788;29;20574;-70
2022/07/15 09:27:47;;;;;;;0.70;0.13;;;21.30;99.90;;;;;;4939650;29;20527;-70
2022/07/15 09:36:05;;;;;;;0.70;0.10;;;22.80;99.90;;;;;;4939418;29;20522;-71
2022/07/15 09:38:41;;;;;;;0.70;0.10;;;21.70;99.90;;;;;;4939391;29;20466;-69
2022/07/15 09:41:14;;;;;;;0.70;0.20;;;21.80;99.90;;;;;;4948842;29;20582;-71
2022/07/15 09:43:53;;;;;;;0.70;0.10;;;21.80;99.90;;;;;;4920821;29;20452;-69
2022/07/15 09:46:22;;;;;;;0.70;0.20;;;21.90;99.90;;;;;;4919872;29;20486;-69
2022/07/15 09:48:52;;;;;;;0.70;0.20;;;21.90;99.90;;;;;;4919995;29;20455;-70
2022/07/15 09:51:22;;;;;;;0.70;0.10;;;21.90;99.90;;;;;;4922213;29;20440;-70
2022/07/15 09:53:51;;;;;;;0.70;0.17;;;22.00;99.90;;;;;;4920799;29;20819;-69
2022/07/15 09:56:26;;;;;;;0.70;0.10;;;22.10;99.90;;;;;;4938779;29;20501;-70
2022/07/15 09:58:54;;;;;;;0.70;0.20;;;22.10;99.90;;;;;;4952488;29;20518;-71
2022/07/15 10:01:22;;;;;;;0.90;0.60;;;22.10;99.90;;;;;;4953123;29;20442;-68
2022/07/15 10:03:51;;;;;;;0.70;0.10;;;22.00;99.90;;;;;;4956700;29;20443;-70
2022/07/15 10:06:24;;;;;;;0.70;0.10;;;22.00;99.90;;;;;;4953224;28;20468;-70
2022/07/15 10:08:54;;;;;;;0.70;0.13;;;22.00;99.90;;;;;;4948696;29;20443;-69
2022/07/15 10:11:22;;;;;;;0.70;0.17;;;22.10;99.90;;;;;;4943658;29;20859;-70
2022/07/15 10:14:28;;;;;;;0.70;0.10;;;22.10;99.90;;;;;;4939882;29;20530;-69
2022/07/15 10:17:33;;;;;;;0.70;0.10;;;22.20;99.90;;;;;;4936573;29;20471;-70
2022/07/15 10:20:24;;;;;;;0.70;0.20;;;24.00;99.90;;;;;;4937784;29;20436;-76
2022/07/15 10:23:01;;;;;;;0.70;0.10;;;22.20;99.90;;;;;;4937677;29;20443;-76
2022/07/15 10:26:07;;;;;;;0.70;0.10;;;22.40;99.90;;;;;;4937727;29;20487;-75
2022/07/15 10:28:53;;;;;;;0.70;0.13;;;22.40;99.90;;;;;;4937112;29;20463;-75
2022/07/15 10:31:25;;;;;;;0.70;0.10;;;22.50;99.90;;;;;;4937463;29;20455;-76
2022/07/15 10:34:29;;;;;;;0.70;0.20;;;22.50;99.90;;;;;;4938234;29;20440;-76
2022/07/15 10:37:03;;;;;;;0.70;0.10;;;22.40;99.90;;;;;;4878878;29;20496;-75
2022/07/15 10:39:51;;;;;;;0.70;0.10;;;22.40;99.90;;;;;;4878062;29;20462;-75
2022/07/15 10:42:20;;;;;;;0.70;0.20;;;22.60;99.90;;;;;;4917324;29;20456;-77
2022/07/15 10:45:05;;;;;;;0.70;0.10;;;22.80;99.90;;;;;;4935889;29;20603;-76
2022/07/15 10:47:34;;;;;;;0.70;0.10;;;22.80;99.90;;;;;;4936511;29;20825;-76
2022/07/15 10:50:39;;;;;;;0.70;0.20;;;22.80;99.90;;;;;;4937003;29;20531;-76
2022/07/15 10:53:18;;;;;;;0.70;0.20;;;22.80;99.90;;;;;;4936937;29;20447;-77
2022/07/15 10:55:47;;;;;;;0.70;0.20;;;22.70;99.90;;;;;;4937088;29;20947;-76
2022/07/15 10:58:17;;;;;;;0.70;0.10;;;22.70;99.90;;;;;;4936534;29;20896;-75
2022/07/15 11:00:46;;;;;;;1.93;1.60;;;22.70;99.90;;;;;;4935245;29;20483;-75
2022/07/15 11:03:17;;;;;;;1.13;0.93;;;22.40;99.90;;;;;;4917797;29;20465;-76
2022/07/15 11:06:06;;;;;;;0.70;0.10;;;22.40;99.90;;;;;;4922726;29;20523;-76
2022/07/15 11:08:50;;;;;;;0.70;0.10;;;22.30;99.90;;;;;;4937662;29;20775;-74
2022/07/15 11:11:50;;;;;;;0.70;0.20;;;22.40;99.90;;;;;;4937815;29;20444;-77
2022/07/15 11:14:52;;;;;;;1.73;0.87;;;22.50;99.90;;;;;;4937399;29;20823;-75
2022/07/15 11:17:25;;;;;;;0.70;0.20;;;22.50;99.90;;;;;;4936814;29;20448;-75
2022/07/15 11:19:56;;;;;;;0.70;0.10;;;22.60;99.90;;;;;;4936136;29;20455;-76
2022/07/15 11:22:26;;;;;;;0.70;0.30;;;22.80;99.90;;;;;;4936834;29;20793;-76
2022/07/15 11:24:54;;;;;;;0.70;0.20;;;22.90;99.90;;;;;;4938245;29;20850;-76
2022/07/15 11:27:25;;;;;;;0.70;0.20;;;22.90;99.90;;;;;;4937016;29;20456;-75
2022/07/15 11:29:58;;;;;;;0.70;0.10;;;22.80;99.90;;;;;;4952649;29;20487;-76
2022/07/15 11:32:28;;;;;;;0.70;0.20;;;22.80;99.90;;;;;;4945590;29;20440;-76
2022/07/15 11:34:58;;;;;;;0.70;0.10;;;22.70;99.90;;;;;;4936584;29;20803;-77
2022/07/15 11:37:27;;;;;;;0.70;0.10;;;22.80;99.90;;;;;;4935402;29;20452;-76
2022/07/15 11:40:08;;;;;;;0.70;0.10;;;22.80;99.90;;;;;;4935733;29;20527;-77
2022/07/15 11:45:35;;;;;;;0.70;0.10;;;23.40;99.90;;;;;;4923923;29;20488;-76
2022/07/15 11:48:06;;;;;;;0.70;0.20;;;23.40;99.90;;;;;;4935803;29;20874;-77
2022/07/15 11:50:36;;;;;;;0.70;0.10;;;25.00;99.90;;;;;;4937001;29;20538;-77
2022/07/15 11:53:12;;;;;;;0.70;0.20;;;23.30;99.90;;;;;;4936074;29;20484;-77
2022/07/15 11:55:49;;;;;;;0.70;0.10;;;23.30;99.90;;;;;;4936643;29;20464;-76
2022/07/15 11:58:26;;;;;;;0.70;0.10;;;23.40;99.90;;;;;;4936472;29;20523;-76
2022/07/15 12:00:54;;;;;;;0.70;0.17;;;23.40;99.90;;;;;;4936197;29;20834;-76
2022/07/15 12:03:22;;;;;;;0.70;0.20;;;23.40;99.90;;;;;;4935968;29;20535;-77
2022/07/15 12:06:17;;;;;;;0.70;0.10;;;23.30;99.90;;;;;;4931907;29;20608;-76
2022/07/15 12:08:48;;;;;;;0.70;0.20;;;23.20;99.90;;;;;;4891732;29;20451;-76
2022/07/15 12:11:23;;;;;;;0.70;0.10;;;23.30;99.90;;;;;;4935297;29;20455;-76
2022/07/15 12:13:56;;;;;;;0.70;0.10;;;23.30;99.90;;;;;;4935388;29;20439;-76
2022/07/15 12:16:29;;;;;;;0.70;0.20;;;23.30;99.90;;;;;;4935018;29;20478;-76
2022/07/15 12:18:58;;;;;;;0.70;0.10;;;23.20;99.90;;;;;;4935570;29;20448;-75
2022/07/15 12:21:28;;;;;;;0.70;0.10;;;23.20;99.90;;;;;;4916618;29;20452;-76
2022/07/15 12:24:11;;;;;;;0.70;0.20;;;23.20;99.90;;;;;;4916929;29;20453;-76
2022/07/15 12:26:41;;;;;;;0.70;0.10;;;23.30;99.90;;;;;;4922921;29;20490;-76
2022/07/15 12:29:12;;;;;;;0.70;0.10;;;23.30;99.90;;;;;;4934835;29;20452;-76
2022/07/15 12:31:43;;;;;;;0.70;0.20;;;23.50;99.90;;;;;;4936150;29;20454;-76
2022/07/15 12:34:11;;;;;;;0.70;0.10;;;23.60;99.90;;;;;;4936594;29;20460;-77
2022/07/15 12:36:39;;;;;;;0.70;0.10;;;23.60;99.90;;;;;;4923515;29;20568;-76
2022/07/15 12:39:10;;;;;;;0.70;0.10;;;23.80;99.90;;;;;;4931183;29;20452;-76
2022/07/15 12:41:46;;;;;;;0.70;0.20;;;23.80;99.90;;;;;;4934596;29;20983;-76
2022/07/15 12:44:15;;;;;;;0.70;0.10;;;23.70;99.90;;;;;;4934395;29;20456;-76
2022/07/15 12:46:52;;;;;;;0.70;0.10;;;23.50;99.90;;;;;;4918779;29;20485;-77
2022/07/15 12:49:53;;;;;;;0.70;0.10;;;23.40;99.90;;;;;;4916983;29;20455;-77
2022/07/15 12:52:24;;;;;;;0.70;0.10;;;23.50;99.90;;;;;;4863843;29;20466;-76
2022/07/15 12:54:55;;;;;;;0.70;0.10;;;23.80;99.90;;;;;;4876245;29;20550;-77
2022/07/15 12:57:28;;;;;;;0.70;0.10;;;23.90;99.90;;;;;;4904989;29;20954;-76
2022/07/15 12:59:59;;;;;;;0.70;0.20;;;24.00;99.90;;;;;;4931029;29;20476;-77
2022/07/15 13:02:28;;;;;;;0.70;0.13;;;24.10;99.90;;;;;;4916066;29;20449;-76
2022/07/15 13:04:56;;;;;;;0.70;0.10;;;23.90;99.90;;;;;;4916300;29;20455;-76
2022/07/15 13:07:24;;;;;;;0.70;0.20;;;23.90;99.90;;;;;;4919873;29;20488;-76
2022/07/15 13:09:52;;;;;;;0.70;0.10;;;23.80;99.90;;;;;;4935351;29;20548;-76
2022/07/15 13:12:20;;;;;;;0.70;0.10;;;23.70;99.90;;;;;;4935209;29;20444;-76
2022/07/15 13:14:48;;;;;;;0.70;0.10;;;26.20;99.90;;;;;;4934897;29;20499;-77
2022/07/15 13:17:17;;;;;;;0.70;0.20;;;24.00;99.90;;;;;;4934816;29;20455;-76